sensor_id;sensor_type;location;lat;lon;timestamp;temperature;humidity
20171;DHT22;10245;51.344;6.620;2022-10-17T00:01:40;15.30;94.20
20171;DHT22;10245;51.344;6.620;2022-10-17T00:04:03;15.30;94.40
20171;DHT22;10245;51.344;6.620;2022-10-17T00:06:26;15.30;94.30
20171;DHT22;10245;51.344;6.620;2022-10-17T00:08:50;15.30;94.20
20171;DHT22;10245;51.344;6.620;2022-10-17T00:11:15;15.30;94.30
20171;DHT22;10245;51.344;6.620;2022-10-17T00:13:41;15.30;94.20
20171;DHT22;10245;51.344;6.620;2022-10-17T00:16:06;15.30;94.20
20171;DHT22;10245;51.344;6.620;2022-10-17T00:18:31;15.40;94.40
20171;DHT22;10245;51.344;6.620;2022-10-17T00:20:54;15.40;94.40
20171;DHT22;10245;51.344;6.620;2022-10-17T00:23:17;15.40;94.40
20171;DHT22;10245;51.344;6.620;2022-10-17T00:25:41;15.50;94.50
20171;DHT22;10245;51.344;6.620;2022-10-17T00:28:04;15.50;94.40
20171;DHT22;10245;51.344;6.620;2022-10-17T00:30:30;15.50;94.50
20171;DHT22;10245;51.344;6.620;2022-10-17T00:32:55;15.50;94.40
20171;DHT22;10245;51.344;6.620;2022-10-17T00:35:18;15.50;94.50
20171;DHT22;10245;51.344;6.620;2022-10-17T00:37:42;15.50;94.40
20171;DHT22;10245;51.344;6.620;2022-10-17T00:40:07;15.50;94.50
20171;DHT22;10245;51.344;6.620;2022-10-17T00:42:32;15.50;94.40
20171;DHT22;10245;51.344;6.620;2022-10-17T00:45:01;15.50;94.40
20171;DHT22;10245;51.344;6.620;2022-10-17T00:47:29;15.50;94.50
20171;DHT22;10245;51.344;6.620;2022-10-17T00:49:55;15.50;94.40
20171;DHT22;10245;51.344;6.620;2022-10-17T00:52:24;15.50;94.50
20171;DHT22;10245;51.344;6.620;2022-10-17T00:54:53;15.50;94.60
20171;DHT22;10245;51.344;6.620;2022-10-17T00:57:18;15.50;94.50
20171;DHT22;10245;51.344;6.620;2022-10-17T00:59:43;15.60;94.50
20171;DHT22;10245;51.344;6.620;2022-10-17T01:02:12;15.60;94.40
20171;DHT22;10245;51.344;6.620;2022-10-17T01:04:40;15.50;94.30
20171;DHT22;10245;51.344;6.620;2022-10-17T01:07:08;15.50;94.50
20171;DHT22;10245;51.344;6.620;2022-10-17T01:09:31;15.60;94.40
20171;DHT22;10245;51.344;6.620;2022-10-17T01:12:02;15.60;94.30
20171;DHT22;10245;51.344;6.620;2022-10-17T01:14:38;15.60;94.40
20171;DHT22;10245;51.344;6.620;2022-10-17T01:17:11;15.60;94.30
20171;DHT22;10245;51.344;6.620;2022-10-17T01:19:54;15.60;94.30
20171;DHT22;10245;51.344;6.620;2022-10-17T01:22:31;15.60;94.20
20171;DHT22;10245;51.344;6.620;2022-10-17T01:25:16;15.50;94.30
20171;DHT22;10245;51.344;6.620;2022-10-17T01:27:59;15.50;94.30
20171;DHT22;10245;51.344;6.620;2022-10-17T01:30:59;15.50;94.20
20171;DHT22;10245;51.344;6.620;2022-10-17T01:33:32;15.60;94.40
20171;DHT22;10245;51.344;6.620;2022-10-17T01:36:10;15.50;94.30
20171;DHT22;10245;51.344;6.620;2022-10-17T01:38:39;15.60;94.20
20171;DHT22;10245;51.344;6.620;2022-10-17T01:41:14;15.60;94.20
20171;DHT22;10245;51.344;6.620;2022-10-17T01:43:46;15.60;94.30
20171;DHT22;10245;51.344;6.620;2022-10-17T01:46:16;15.70;94.30
20171;DHT22;10245;51.344;6.620;2022-10-17T01:48:45;15.60;94.10
20171;DHT22;10245;51.344;6.620;2022-10-17T01:51:11;15.60;94.10
20171;DHT22;10245;51.344;6.620;2022-10-17T01:53:40;15.60;94.10
20171;DHT22;10245;51.344;6.620;2022-10-17T01:56:09;15.70;93.90
20171;DHT22;10245;51.344;6.620;2022-10-17T01:58:37;15.70;94.00
20171;DHT22;10245;51.344;6.620;2022-10-17T02:01:04;15.70;94.00
20171;DHT22;10245;51.344;6.620;2022-10-17T02:03:30;15.70;94.00
20171;DHT22;10245;51.344;6.620;2022-10-17T02:05:55;15.70;94.00
20171;DHT22;10245;51.344;6.620;2022-10-17T02:08:26;15.70;93.90
20171;DHT22;10245;51.344;6.620;2022-10-17T02:10:55;15.70;93.90
20171;DHT22;10245;51.344;6.620;2022-10-17T02:13:30;15.60;93.90
20171;DHT22;10245;51.344;6.620;2022-10-17T02:16:16;15.70;94.00
20171;DHT22;10245;51.344;6.620;2022-10-17T02:19:10;15.70;93.70
20171;DHT22;10245;51.344;6.620;2022-10-17T02:21:55;15.60;93.80
20171;DHT22;10245;51.344;6.620;2022-10-17T02:24:31;15.60;93.90
20171;DHT22;10245;51.344;6.620;2022-10-17T02:27:04;15.60;93.90
20171;DHT22;10245;51.344;6.620;2022-10-17T02:29:32;15.60;94.00
20171;DHT22;10245;51.344;6.620;2022-10-17T02:32:00;15.60;93.80
20171;DHT22;10245;51.344;6.620;2022-10-17T02:34:30;15.60;93.80
20171;DHT22;10245;51.344;6.620;2022-10-17T02:36:58;15.60;93.70
20171;DHT22;10245;51.344;6.620;2022-10-17T02:39:24;15.60;93.80
20171;DHT22;10245;51.344;6.620;2022-10-17T02:41:51;15.60;93.70
20171;DHT22;10245;51.344;6.620;2022-10-17T02:44:16;15.60;93.80
20171;DHT22;10245;51.344;6.620;2022-10-17T02:46:41;15.60;93.80
20171;DHT22;10245;51.344;6.620;2022-10-17T02:49:14;15.60;93.60
20171;DHT22;10245;51.344;6.620;2022-10-17T02:51:43;15.70;93.60
20171;DHT22;10245;51.344;6.620;2022-10-17T02:54:14;15.70;93.60
20171;DHT22;10245;51.344;6.620;2022-10-17T02:56:45;15.60;93.70
20171;DHT22;10245;51.344;6.620;2022-10-17T02:59:13;15.70;93.50
20171;DHT22;10245;51.344;6.620;2022-10-17T03:01:37;15.70;93.50
20171;DHT22;10245;51.344;6.620;2022-10-17T03:04:06;15.60;93.40
20171;DHT22;10245;51.344;6.620;2022-10-17T03:06:29;15.80;93.50
20171;DHT22;10245;51.344;6.620;2022-10-17T03:08:54;15.70;93.30
20171;DHT22;10245;51.344;6.620;2022-10-17T03:11:18;15.80;93.20
20171;DHT22;10245;51.344;6.620;2022-10-17T03:13:41;15.70;93.20
20171;DHT22;10245;51.344;6.620;2022-10-17T03:16:04;15.70;93.30
20171;DHT22;10245;51.344;6.620;2022-10-17T03:18:28;15.80;93.30
20171;DHT22;10245;51.344;6.620;2022-10-17T03:20:54;15.80;93.10
20171;DHT22;10245;51.344;6.620;2022-10-17T03:23:17;15.80;93.10
20171;DHT22;10245;51.344;6.620;2022-10-17T03:25:42;15.80;93.30
20171;DHT22;10245;51.344;6.620;2022-10-17T03:28:09;15.90;92.80
20171;DHT22;10245;51.344;6.620;2022-10-17T03:30:33;15.80;93.10
20171;DHT22;10245;51.344;6.620;2022-10-17T03:32:57;15.80;93.00
20171;DHT22;10245;51.344;6.620;2022-10-17T03:35:21;15.80;92.90
20171;DHT22;10245;51.344;6.620;2022-10-17T03:37:44;15.90;92.80
20171;DHT22;10245;51.344;6.620;2022-10-17T03:40:09;15.80;92.80
20171;DHT22;10245;51.344;6.620;2022-10-17T03:42:34;15.70;92.90
20171;DHT22;10245;51.344;6.620;2022-10-17T03:44:57;15.70;93.20
20171;DHT22;10245;51.344;6.620;2022-10-17T03:47:21;15.80;93.10
20171;DHT22;10245;51.344;6.620;2022-10-17T03:49:45;15.80;93.00
20171;DHT22;10245;51.344;6.620;2022-10-17T03:52:10;15.70;92.90
20171;DHT22;10245;51.344;6.620;2022-10-17T03:54:34;15.70;92.90
20171;DHT22;10245;51.344;6.620;2022-10-17T03:56:57;15.70;92.90
20171;DHT22;10245;51.344;6.620;2022-10-17T03:59:22;15.80;93.00
20171;DHT22;10245;51.344;6.620;2022-10-17T04:01:54;15.70;92.90
20171;DHT22;10245;51.344;6.620;2022-10-17T04:04:18;15.80;92.90
20171;DHT22;10245;51.344;6.620;2022-10-17T04:06:41;15.70;92.90
20171;DHT22;10245;51.344;6.620;2022-10-17T04:09:05;15.80;92.80
20171;DHT22;10245;51.344;6.620;2022-10-17T04:11:46;15.90;92.60
20171;DHT22;10245;51.344;6.620;2022-10-17T04:14:10;15.80;92.70
20171;DHT22;10245;51.344;6.620;2022-10-17T04:16:37;15.80;92.80
20171;DHT22;10245;51.344;6.620;2022-10-17T04:19:06;15.90;92.50
20171;DHT22;10245;51.344;6.620;2022-10-17T04:21:34;15.90;92.50
20171;DHT22;10245;51.344;6.620;2022-10-17T04:24:00;15.80;92.70
20171;DHT22;10245;51.344;6.620;2022-10-17T04:26:37;15.80;92.50
20171;DHT22;10245;51.344;6.620;2022-10-17T04:29:00;15.90;92.60
20171;DHT22;10245;51.344;6.620;2022-10-17T04:31:24;15.90;92.50
20171;DHT22;10245;51.344;6.620;2022-10-17T04:33:59;15.90;92.50
20171;DHT22;10245;51.344;6.620;2022-10-17T04:36:23;15.90;92.50
20171;DHT22;10245;51.344;6.620;2022-10-17T04:38:46;15.90;92.50
20171;DHT22;10245;51.344;6.620;2022-10-17T04:41:11;15.90;92.60
20171;DHT22;10245;51.344;6.620;2022-10-17T04:43:37;15.90;92.40
20171;DHT22;10245;51.344;6.620;2022-10-17T04:46:04;15.90;92.50
20171;DHT22;10245;51.344;6.620;2022-10-17T04:48:30;15.90;92.30
20171;DHT22;10245;51.344;6.620;2022-10-17T04:50:56;16.00;92.10
20171;DHT22;10245;51.344;6.620;2022-10-17T04:53:34;16.00;92.10
20171;DHT22;10245;51.344;6.620;2022-10-17T04:55:59;16.00;92.30
20171;DHT22;10245;51.344;6.620;2022-10-17T04:58:23;16.00;92.20
20171;DHT22;10245;51.344;6.620;2022-10-17T05:00:46;16.00;92.00
20171;DHT22;10245;51.344;6.620;2022-10-17T05:03:16;16.00;92.10
20171;DHT22;10245;51.344;6.620;2022-10-17T05:05:41;16.00;92.10
20171;DHT22;10245;51.344;6.620;2022-10-17T05:08:07;16.00;91.90
20171;DHT22;10245;51.344;6.620;2022-10-17T05:10:35;16.00;91.90
20171;DHT22;10245;51.344;6.620;2022-10-17T05:12:59;16.00;92.00
20171;DHT22;10245;51.344;6.620;2022-10-17T05:15:25;16.00;91.70
20171;DHT22;10245;51.344;6.620;2022-10-17T05:17:53;16.00;91.80
20171;DHT22;10245;51.344;6.620;2022-10-17T05:20:18;16.10;91.80
20171;DHT22;10245;51.344;6.620;2022-10-17T05:22:41;16.10;91.60
20171;DHT22;10245;51.344;6.620;2022-10-17T05:25:07;16.10;91.60
20171;DHT22;10245;51.344;6.620;2022-10-17T05:27:31;16.10;91.60
20171;DHT22;10245;51.344;6.620;2022-10-17T05:29:55;16.10;91.70
20171;DHT22;10245;51.344;6.620;2022-10-17T05:32:22;16.00;91.80
20171;DHT22;10245;51.344;6.620;2022-10-17T05:34:45;16.00;91.80
20171;DHT22;10245;51.344;6.620;2022-10-17T05:37:09;16.00;91.90
20171;DHT22;10245;51.344;6.620;2022-10-17T05:39:33;16.00;91.70
20171;DHT22;10245;51.344;6.620;2022-10-17T05:41:59;16.10;91.60
20171;DHT22;10245;51.344;6.620;2022-10-17T05:44:22;16.10;91.40
20171;DHT22;10245;51.344;6.620;2022-10-17T05:46:49;16.10;91.60
20171;DHT22;10245;51.344;6.620;2022-10-17T05:49:13;16.10;91.40
20171;DHT22;10245;51.344;6.620;2022-10-17T05:51:54;16.10;91.40
20171;DHT22;10245;51.344;6.620;2022-10-17T05:54:19;16.10;91.40
20171;DHT22;10245;51.344;6.620;2022-10-17T05:56:42;16.00;91.40
20171;DHT22;10245;51.344;6.620;2022-10-17T05:59:07;16.00;91.40
20171;DHT22;10245;51.344;6.620;2022-10-17T06:01:43;16.00;91.20
20171;DHT22;10245;51.344;6.620;2022-10-17T06:04:07;16.00;91.40
20171;DHT22;10245;51.344;6.620;2022-10-17T06:06:31;16.00;91.30
20171;DHT22;10245;51.344;6.620;2022-10-17T06:08:55;16.00;91.30
20171;DHT22;10245;51.344;6.620;2022-10-17T06:11:23;16.10;91.00
20171;DHT22;10245;51.344;6.620;2022-10-17T06:13:47;16.10;91.10
20171;DHT22;10245;51.344;6.620;2022-10-17T06:16:17;16.00;91.20
20171;DHT22;10245;51.344;6.620;2022-10-17T06:18:40;16.10;91.20
20171;DHT22;10245;51.344;6.620;2022-10-17T06:21:06;16.00;91.10
20171;DHT22;10245;51.344;6.620;2022-10-17T06:23:33;16.10;91.00
20171;DHT22;10245;51.344;6.620;2022-10-17T06:26:09;16.20;90.70
20171;DHT22;10245;51.344;6.620;2022-10-17T06:28:32;16.30;90.50
20171;DHT22;10245;51.344;6.620;2022-10-17T06:30:57;16.30;90.50
20171;DHT22;10245;51.344;6.620;2022-10-17T06:33:22;16.30;90.30
20171;DHT22;10245;51.344;6.620;2022-10-17T06:35:50;16.40;90.20
20171;DHT22;10245;51.344;6.620;2022-10-17T06:38:14;16.40;90.00
20171;DHT22;10245;51.344;6.620;2022-10-17T06:40:38;16.40;90.00
20171;DHT22;10245;51.344;6.620;2022-10-17T06:43:01;16.40;90.00
20171;DHT22;10245;51.344;6.620;2022-10-17T06:45:45;16.40;90.00
20171;DHT22;10245;51.344;6.620;2022-10-17T06:48:12;16.50;89.90
20171;DHT22;10245;51.344;6.620;2022-10-17T06:50:59;16.40;90.10
20171;DHT22;10245;51.344;6.620;2022-10-17T06:53:22;16.40;90.00
20171;DHT22;10245;51.344;6.620;2022-10-17T06:56:02;16.50;89.70
20171;DHT22;10245;51.344;6.620;2022-10-17T06:58:47;16.50;89.60
20171;DHT22;10245;51.344;6.620;2022-10-17T07:01:24;16.50;89.70
20171;DHT22;10245;51.344;6.620;2022-10-17T07:03:51;16.50;89.50
20171;DHT22;10245;51.344;6.620;2022-10-17T07:06:16;16.50;89.70
20171;DHT22;10245;51.344;6.620;2022-10-17T07:08:41;16.60;89.70
20171;DHT22;10245;51.344;6.620;2022-10-17T07:11:10;16.60;89.60
20171;DHT22;10245;51.344;6.620;2022-10-17T07:13:34;16.60;89.40
20171;DHT22;10245;51.344;6.620;2022-10-17T07:16:00;16.70;89.50
20171;DHT22;10245;51.344;6.620;2022-10-17T07:18:26;16.80;89.10
20171;DHT22;10245;51.344;6.620;2022-10-17T07:20:52;17.00;88.80
20171;DHT22;10245;51.344;6.620;2022-10-17T07:23:17;17.10;88.00
20171;DHT22;10245;51.344;6.620;2022-10-17T07:25:40;17.20;87.80
20171;DHT22;10245;51.344;6.620;2022-10-17T07:28:04;17.20;87.80
20171;DHT22;10245;51.344;6.620;2022-10-17T07:30:28;17.20;87.30
20171;DHT22;10245;51.344;6.620;2022-10-17T07:32:57;17.30;87.40
20171;DHT22;10245;51.344;6.620;2022-10-17T07:35:21;17.20;87.80
20171;DHT22;10245;51.344;6.620;2022-10-17T07:37:45;17.30;87.20
20171;DHT22;10245;51.344;6.620;2022-10-17T07:40:13;17.30;87.00
20171;DHT22;10245;51.344;6.620;2022-10-17T07:42:37;17.30;87.40
20171;DHT22;10245;51.344;6.620;2022-10-17T07:45:07;17.30;87.20
20171;DHT22;10245;51.344;6.620;2022-10-17T07:47:31;17.40;86.90
20171;DHT22;10245;51.344;6.620;2022-10-17T07:49:56;17.50;86.90
20171;DHT22;10245;51.344;6.620;2022-10-17T07:52:20;17.60;86.10
20171;DHT22;10245;51.344;6.620;2022-10-17T07:54:43;17.90;85.80
20171;DHT22;10245;51.344;6.620;2022-10-17T07:57:08;18.00;85.70
20171;DHT22;10245;51.344;6.620;2022-10-17T07:59:32;18.00;86.20
20171;DHT22;10245;51.344;6.620;2022-10-17T08:01:56;18.00;84.40
20171;DHT22;10245;51.344;6.620;2022-10-17T08:04:20;18.10;84.90
20171;DHT22;10245;51.344;6.620;2022-10-17T08:06:44;18.20;84.00
20171;DHT22;10245;51.344;6.620;2022-10-17T08:09:11;18.20;83.90
20171;DHT22;10245;51.344;6.620;2022-10-17T08:11:35;18.30;83.80
20171;DHT22;10245;51.344;6.620;2022-10-17T08:13:59;18.30;84.40
20171;DHT22;10245;51.344;6.620;2022-10-17T08:16:23;18.20;85.70
20171;DHT22;10245;51.344;6.620;2022-10-17T08:18:46;18.50;83.70
20171;DHT22;10245;51.344;6.620;2022-10-17T08:21:10;18.50;84.70
20171;DHT22;10245;51.344;6.620;2022-10-17T08:23:35;18.50;83.50
20171;DHT22;10245;51.344;6.620;2022-10-17T08:25:59;18.60;82.90
20171;DHT22;10245;51.344;6.620;2022-10-17T08:28:23;18.70;82.70
20171;DHT22;10245;51.344;6.620;2022-10-17T08:30:48;18.60;82.50
20171;DHT22;10245;51.344;6.620;2022-10-17T08:33:11;18.60;84.00
20171;DHT22;10245;51.344;6.620;2022-10-17T08:35:35;18.70;83.60
20171;DHT22;10245;51.344;6.620;2022-10-17T08:37:59;19.00;81.80
20171;DHT22;10245;51.344;6.620;2022-10-17T08:40:24;19.10;82.50
20171;DHT22;10245;51.344;6.620;2022-10-17T08:43:01;19.00;82.40
20171;DHT22;10245;51.344;6.620;2022-10-17T08:45:34;19.20;81.10
20171;DHT22;10245;51.344;6.620;2022-10-17T08:48:04;19.10;80.70
20171;DHT22;10245;51.344;6.620;2022-10-17T08:50:37;19.00;81.70
20171;DHT22;10245;51.344;6.620;2022-10-17T08:53:07;19.10;81.50
20171;DHT22;10245;51.344;6.620;2022-10-17T08:55:36;19.10;81.40
20171;DHT22;10245;51.344;6.620;2022-10-17T08:58:12;19.10;81.40
20171;DHT22;10245;51.344;6.620;2022-10-17T09:00:36;19.40;81.00
20171;DHT22;10245;51.344;6.620;2022-10-17T09:03:13;19.50;81.00
20171;DHT22;10245;51.344;6.620;2022-10-17T09:05:47;19.50;80.10
20171;DHT22;10245;51.344;6.620;2022-10-17T09:08:24;19.40;81.40
20171;DHT22;10245;51.344;6.620;2022-10-17T09:11:00;19.70;80.90
20171;DHT22;10245;51.344;6.620;2022-10-17T09:13:38;19.60;81.10
20171;DHT22;10245;51.344;6.620;2022-10-17T09:16:46;19.50;80.60
20171;DHT22;10245;51.344;6.620;2022-10-17T09:19:32;19.50;80.40
20171;DHT22;10245;51.344;6.620;2022-10-17T09:22:00;19.30;81.20
20171;DHT22;10245;51.344;6.620;2022-10-17T09:24:32;19.20;81.10
20171;DHT22;10245;51.344;6.620;2022-10-17T09:27:01;19.30;80.50
20171;DHT22;10245;51.344;6.620;2022-10-17T09:29:26;19.20;80.40
20171;DHT22;10245;51.344;6.620;2022-10-17T09:32:01;19.20;81.50
20171;DHT22;10245;51.344;6.620;2022-10-17T09:34:30;19.20;81.40
20171;DHT22;10245;51.344;6.620;2022-10-17T09:36:56;19.10;81.30
20171;DHT22;10245;51.344;6.620;2022-10-17T09:39:22;19.20;82.20
20171;DHT22;10245;51.344;6.620;2022-10-17T09:41:49;19.20;82.30
20171;DHT22;10245;51.344;6.620;2022-10-17T09:44:15;19.20;81.60
20171;DHT22;10245;51.344;6.620;2022-10-17T09:46:44;19.10;81.60
20171;DHT22;10245;51.344;6.620;2022-10-17T09:49:27;19.10;82.00
20171;DHT22;10245;51.344;6.620;2022-10-17T09:51:53;19.10;82.50
20171;DHT22;10245;51.344;6.620;2022-10-17T09:54:20;19.10;82.30
20171;DHT22;10245;51.344;6.620;2022-10-17T09:56:59;19.00;82.60
20171;DHT22;10245;51.344;6.620;2022-10-17T09:59:30;19.10;83.40
20171;DHT22;10245;51.344;6.620;2022-10-17T10:02:07;18.90;84.20
20171;DHT22;10245;51.344;6.620;2022-10-17T10:04:33;19.00;82.70
20171;DHT22;10245;51.344;6.620;2022-10-17T10:07:16;19.00;83.20
20171;DHT22;10245;51.344;6.620;2022-10-17T10:09:45;19.10;82.20
20171;DHT22;10245;51.344;6.620;2022-10-17T10:12:17;19.10;83.60
20171;DHT22;10245;51.344;6.620;2022-10-17T10:14:43;19.00;83.10
20171;DHT22;10245;51.344;6.620;2022-10-17T10:17:35;19.10;82.50
20171;DHT22;10245;51.344;6.620;2022-10-17T10:20:25;19.20;81.90
20171;DHT22;10245;51.344;6.620;2022-10-17T10:23:05;19.30;82.80
20171;DHT22;10245;51.344;6.620;2022-10-17T10:25:29;19.40;82.40
20171;DHT22;10245;51.344;6.620;2022-10-17T10:27:52;19.50;82.60
20171;DHT22;10245;51.344;6.620;2022-10-17T10:30:28;19.60;80.90
20171;DHT22;10245;51.344;6.620;2022-10-17T10:32:59;19.70;81.70
20171;DHT22;10245;51.344;6.620;2022-10-17T10:35:30;19.60;82.90
20171;DHT22;10245;51.344;6.620;2022-10-17T10:37:56;19.60;80.40
20171;DHT22;10245;51.344;6.620;2022-10-17T10:40:23;19.60;82.90
20171;DHT22;10245;51.344;6.620;2022-10-17T10:42:50;19.50;80.90
20171;DHT22;10245;51.344;6.620;2022-10-17T10:45:16;19.60;82.30
20171;DHT22;10245;51.344;6.620;2022-10-17T10:48:02;19.50;82.60
20171;DHT22;10245;51.344;6.620;2022-10-17T10:50:32;19.50;81.60
20171;DHT22;10245;51.344;6.620;2022-10-17T10:53:15;19.50;81.60
20171;DHT22;10245;51.344;6.620;2022-10-17T10:55:51;19.30;83.40
20171;DHT22;10245;51.344;6.620;2022-10-17T10:58:25;19.30;83.40
20171;DHT22;10245;51.344;6.620;2022-10-17T11:00:53;19.30;84.20
20171;DHT22;10245;51.344;6.620;2022-10-17T11:03:22;19.20;84.70
20171;DHT22;10245;51.344;6.620;2022-10-17T11:05:53;19.20;86.00
20171;DHT22;10245;51.344;6.620;2022-10-17T11:08:24;19.10;85.40
20171;DHT22;10245;51.344;6.620;2022-10-17T11:11:08;19.10;86.00
20171;DHT22;10245;51.344;6.620;2022-10-17T11:13:43;19.20;86.60
20171;DHT22;10245;51.344;6.620;2022-10-17T11:16:23;19.20;87.10
20171;DHT22;10245;51.344;6.620;2022-10-17T11:18:54;19.10;86.20
20171;DHT22;10245;51.344;6.620;2022-10-17T11:21:37;19.20;85.70
20171;DHT22;10245;51.344;6.620;2022-10-17T11:24:09;19.20;85.90
20171;DHT22;10245;51.344;6.620;2022-10-17T11:26:40;19.20;86.00
20171;DHT22;10245;51.344;6.620;2022-10-17T11:29:05;19.20;86.40
20171;DHT22;10245;51.344;6.620;2022-10-17T11:31:31;19.30;86.00
20171;DHT22;10245;51.344;6.620;2022-10-17T11:33:58;19.30;86.00
20171;DHT22;10245;51.344;6.620;2022-10-17T11:36:27;19.30;87.60
20171;DHT22;10245;51.344;6.620;2022-10-17T11:38:55;19.50;86.60
20171;DHT22;10245;51.344;6.620;2022-10-17T11:41:26;19.50;86.20
20171;DHT22;10245;51.344;6.620;2022-10-17T11:43:55;19.50;85.80
20171;DHT22;10245;51.344;6.620;2022-10-17T11:46:23;19.60;84.90
20171;DHT22;10245;51.344;6.620;2022-10-17T11:49:04;19.70;85.50
20171;DHT22;10245;51.344;6.620;2022-10-17T11:51:44;19.60;84.30
20171;DHT22;10245;51.344;6.620;2022-10-17T11:54:27;19.60;85.30
20171;DHT22;10245;51.344;6.620;2022-10-17T11:57:09;19.60;85.40
20171;DHT22;10245;51.344;6.620;2022-10-17T11:59:53;19.50;86.90
20171;DHT22;10245;51.344;6.620;2022-10-17T12:02:29;19.50;85.60
20171;DHT22;10245;51.344;6.620;2022-10-17T12:05:00;19.40;85.50
20171;DHT22;10245;51.344;6.620;2022-10-17T12:07:35;19.40;85.20
20171;DHT22;10245;51.344;6.620;2022-10-17T12:10:12;19.40;85.40
20171;DHT22;10245;51.344;6.620;2022-10-17T12:12:40;19.40;85.60
20171;DHT22;10245;51.344;6.620;2022-10-17T12:15:29;19.40;85.80
20171;DHT22;10245;51.344;6.620;2022-10-17T12:17:54;19.30;86.00
20171;DHT22;10245;51.344;6.620;2022-10-17T12:20:31;19.30;86.40
20171;DHT22;10245;51.344;6.620;2022-10-17T12:23:16;19.30;87.10
20171;DHT22;10245;51.344;6.620;2022-10-17T12:25:48;19.10;87.80
20171;DHT22;10245;51.344;6.620;2022-10-17T12:28:15;19.10;88.00
20171;DHT22;10245;51.344;6.620;2022-10-17T12:30:56;19.10;87.60
20171;DHT22;10245;51.344;6.620;2022-10-17T12:33:24;19.00;87.70
20171;DHT22;10245;51.344;6.620;2022-10-17T12:42:32;19.20;88.40
20171;DHT22;10245;51.344;6.620;2022-10-17T12:45:43;19.20;88.80
20171;DHT22;10245;51.344;6.620;2022-10-17T12:48:08;19.20;88.60
20171;DHT22;10245;51.344;6.620;2022-10-17T12:51:00;19.20;87.90
20171;DHT22;10245;51.344;6.620;2022-10-17T12:53:49;19.20;87.30
20171;DHT22;10245;51.344;6.620;2022-10-17T12:56:20;19.40;86.40
20171;DHT22;10245;51.344;6.620;2022-10-17T12:58:45;19.30;87.60
20171;DHT22;10245;51.344;6.620;2022-10-17T13:01:16;19.30;86.80
20171;DHT22;10245;51.344;6.620;2022-10-17T13:03:47;19.20;86.90
20171;DHT22;10245;51.344;6.620;2022-10-17T13:06:18;19.30;86.60
20171;DHT22;10245;51.344;6.620;2022-10-17T13:08:46;19.30;87.40
20171;DHT22;10245;51.344;6.620;2022-10-17T13:11:22;19.30;86.40
20171;DHT22;10245;51.344;6.620;2022-10-17T13:13:47;19.30;85.20
20171;DHT22;10245;51.344;6.620;2022-10-17T13:16:27;19.50;84.00
20171;DHT22;10245;51.344;6.620;2022-10-17T13:18:52;19.50;83.30
20171;DHT22;10245;51.344;6.620;2022-10-17T13:21:16;19.50;83.40
20171;DHT22;10245;51.344;6.620;2022-10-17T13:23:39;19.50;84.30
20171;DHT22;10245;51.344;6.620;2022-10-17T13:26:06;19.50;82.90
20171;DHT22;10245;51.344;6.620;2022-10-17T13:28:37;19.60;82.20
20171;DHT22;10245;51.344;6.620;2022-10-17T13:31:03;19.60;81.90
20171;DHT22;10245;51.344;6.620;2022-10-17T13:33:37;19.60;81.50
20171;DHT22;10245;51.344;6.620;2022-10-17T13:36:06;19.60;82.10
20171;DHT22;10245;51.344;6.620;2022-10-17T13:38:32;19.50;83.20
20171;DHT22;10245;51.344;6.620;2022-10-17T13:41:00;19.40;84.10
20171;DHT22;10245;51.344;6.620;2022-10-17T13:43:45;19.50;82.80
20171;DHT22;10245;51.344;6.620;2022-10-17T13:46:19;19.50;83.10
20171;DHT22;10245;51.344;6.620;2022-10-17T13:49:08;19.50;82.60
20171;DHT22;10245;51.344;6.620;2022-10-17T13:51:34;19.50;83.10
20171;DHT22;10245;51.344;6.620;2022-10-17T13:53:57;19.60;82.40
20171;DHT22;10245;51.344;6.620;2022-10-17T13:56:22;19.60;82.50
20171;DHT22;10245;51.344;6.620;2022-10-17T13:58:53;19.60;82.10
20171;DHT22;10245;51.344;6.620;2022-10-17T14:01:19;19.70;81.20
20171;DHT22;10245;51.344;6.620;2022-10-17T14:03:44;19.80;81.60
20171;DHT22;10245;51.344;6.620;2022-10-17T14:06:14;19.80;81.90
20171;DHT22;10245;51.344;6.620;2022-10-17T14:08:47;19.80;82.10
20171;DHT22;10245;51.344;6.620;2022-10-17T14:11:17;19.70;81.90
20171;DHT22;10245;51.344;6.620;2022-10-17T14:13:55;19.70;81.80
20171;DHT22;10245;51.344;6.620;2022-10-17T14:16:19;19.80;80.90
20171;DHT22;10245;51.344;6.620;2022-10-17T14:18:46;19.80;81.00
20171;DHT22;10245;51.344;6.620;2022-10-17T14:21:18;19.80;80.60
20171;DHT22;10245;51.344;6.620;2022-10-17T14:24:27;19.70;81.90
20171;DHT22;10245;51.344;6.620;2022-10-17T14:26:53;19.80;80.90
20171;DHT22;10245;51.344;6.620;2022-10-17T14:29:27;19.80;81.50
20171;DHT22;10245;51.344;6.620;2022-10-17T14:32:01;19.80;80.70
20171;DHT22;10245;51.344;6.620;2022-10-17T14:34:30;19.70;81.40
20171;DHT22;10245;51.344;6.620;2022-10-17T14:36:55;19.80;81.70
20171;DHT22;10245;51.344;6.620;2022-10-17T14:39:21;19.70;81.50
20171;DHT22;10245;51.344;6.620;2022-10-17T14:41:46;19.70;81.90
20171;DHT22;10245;51.344;6.620;2022-10-17T14:44:17;19.70;81.40
20171;DHT22;10245;51.344;6.620;2022-10-17T14:46:45;19.60;82.40
20171;DHT22;10245;51.344;6.620;2022-10-17T14:49:16;19.60;82.20
20171;DHT22;10245;51.344;6.620;2022-10-17T14:52:10;19.60;82.50
20171;DHT22;10245;51.344;6.620;2022-10-17T14:54:43;19.50;83.50
20171;DHT22;10245;51.344;6.620;2022-10-17T14:57:13;19.50;83.40
20171;DHT22;10245;51.344;6.620;2022-10-17T14:59:37;19.50;83.40
20171;DHT22;10245;51.344;6.620;2022-10-17T15:02:16;19.50;82.60
20171;DHT22;10245;51.344;6.620;2022-10-17T15:04:40;19.50;82.80
20171;DHT22;10245;51.344;6.620;2022-10-17T15:07:03;19.50;83.00
20171;DHT22;10245;51.344;6.620;2022-10-17T15:09:27;19.40;84.30
20171;DHT22;10245;51.344;6.620;2022-10-17T15:11:50;19.30;84.10
20171;DHT22;10245;51.344;6.620;2022-10-17T15:14:14;19.30;83.80
20171;DHT22;10245;51.344;6.620;2022-10-17T15:16:37;19.30;84.50
20171;DHT22;10245;51.344;6.620;2022-10-17T15:19:02;19.20;85.00
20171;DHT22;10245;51.344;6.620;2022-10-17T15:21:27;19.20;85.30
20171;DHT22;10245;51.344;6.620;2022-10-17T15:24:05;19.10;85.40
20171;DHT22;10245;51.344;6.620;2022-10-17T15:26:31;19.10;85.60
20171;DHT22;10245;51.344;6.620;2022-10-17T15:28:54;19.00;86.30
20171;DHT22;10245;51.344;6.620;2022-10-17T15:31:19;19.00;86.70
20171;DHT22;10245;51.344;6.620;2022-10-17T15:33:44;18.80;87.00
20171;DHT22;10245;51.344;6.620;2022-10-17T15:36:21;18.80;87.40
20171;DHT22;10245;51.344;6.620;2022-10-17T15:38:45;18.80;87.20
20171;DHT22;10245;51.344;6.620;2022-10-17T15:41:10;18.80;87.30
20171;DHT22;10245;51.344;6.620;2022-10-17T15:43:33;18.80;87.50
20171;DHT22;10245;51.344;6.620;2022-10-17T15:45:59;18.70;87.90
20171;DHT22;10245;51.344;6.620;2022-10-17T15:48:26;18.70;88.00
20171;DHT22;10245;51.344;6.620;2022-10-17T15:50:51;18.70;87.90